createdAt,value
2023-01-29T00:02:40.835Z,101832.14
2023-01-29T00:05:28.222Z,101827.65
2023-01-29T00:08:19.352Z,101829.92
2023-01-29T00:11:04.935Z,101831.14
2023-01-29T00:13:35.969Z,101824.39
2023-01-29T00:16:26.879Z,101815.89
2023-01-29T00:18:57.437Z,101814.67
2023-01-29T00:21:48.407Z,101813.77
2023-01-29T00:24:39.016Z,101814.27
2023-01-29T00:27:30.514Z,101815.27
2023-01-29T00:30:19.824Z,101821.30
2023-01-29T00:33:04.183Z,101818.02
2023-01-29T00:35:47.640Z,101819.21
2023-01-29T00:38:27.447Z,101824.23
2023-01-29T00:41:30.577Z,101817.45
2023-01-29T00:44:38.706Z,101815.14
2023-01-29T00:47:33.553Z,101815.28
2023-01-29T00:50:24.510Z,101819.74
2023-01-29T00:53:15.169Z,101825.61
2023-01-29T00:56:06.431Z,101824.22
2023-01-29T00:58:57.662Z,101828.38
2023-01-29T01:02:06.011Z,101833.39
2023-01-29T01:04:56.974Z,101840.85
2023-01-29T01:07:49.446Z,101842.77
2023-01-29T01:10:40.124Z,101841.42
2023-01-29T01:13:30.842Z,101842.14
2023-01-29T01:16:18.696Z,101842.30
2023-01-29T01:18:56.772Z,101833.84
2023-01-29T01:21:48.529Z,101831.44
2023-01-29T01:24:39.593Z,101832.33
2023-01-29T01:27:30.350Z,101830.45
2023-01-29T01:30:21.291Z,101828.55
2023-01-29T01:33:11.907Z,101826.48
2023-01-29T01:35:45.317Z,101823.38
2023-01-29T01:38:25.695Z,101822.52
2023-01-29T01:41:09.076Z,101825.27
2023-01-29T01:43:54.069Z,101823.54
2023-01-29T01:46:44.715Z,101821.12
2023-01-29T01:49:35.718Z,101819.37
2023-01-29T01:52:26.700Z,101826.65
2023-01-29T01:55:21.575Z,101818.50
2023-01-29T01:58:10.487Z,101820.05
2023-01-29T02:01:02.073Z,101822.84
2023-01-29T02:04:16.462Z,101820.41
2023-01-29T02:07:18.606Z,101814.53
2023-01-29T02:10:17.215Z,101808.13
2023-01-29T02:13:09.662Z,101808.47
2023-01-29T02:16:00.528Z,101807.77
2023-01-29T02:18:52.130Z,101806.02
2023-01-29T02:21:53.711Z,101806.52
2023-01-29T02:25:10.069Z,101803.53
2023-01-29T02:28:13.081Z,101793.09
2023-01-29T02:31:04.773Z,101784.21
2023-01-29T02:34:03.799Z,101787.96
2023-01-29T02:36:59.113Z,101779.28
2023-01-29T02:39:49.950Z,101781.62
2023-01-29T02:42:37.161Z,101780.16
2023-01-29T02:45:34.574Z,101778.86
2023-01-29T02:48:28.893Z,101775.52
2023-01-29T02:51:07.692Z,101774.92
2023-01-29T02:53:59.183Z,101776.40
2023-01-29T02:56:55.414Z,101778.56
2023-01-29T02:59:44.557Z,101776.92
2023-01-29T03:02:19.970Z,101784.14
2023-01-29T03:05:17.970Z,101787.34
2023-01-29T03:08:08.396Z,101786.90
2023-01-29T03:10:55.559Z,101791.30
2023-01-29T03:13:51.435Z,101791.55
2023-01-29T03:16:47.890Z,101793.18
2023-01-29T03:19:22.111Z,101793.25
2023-01-29T03:22:16.618Z,101795.91
2023-01-29T03:25:09.518Z,101790.27
2023-01-29T03:28:22.499Z,101798.25
2023-01-29T03:31:28.383Z,101808.96
2023-01-29T03:34:24.543Z,101811.58
2023-01-29T03:37:21.743Z,101821.16
2023-01-29T03:40:15.265Z,101822.33
2023-01-29T03:43:13.359Z,101821.99
2023-01-29T03:46:10.150Z,101821.29
2023-01-29T03:48:45.943Z,101819.05
2023-01-29T03:51:36.132Z,101818.55
2023-01-29T03:54:21.395Z,101813.91
2023-01-29T03:57:18.511Z,101817.75
2023-01-29T03:59:55.867Z,101822.29
2023-01-29T04:02:52.775Z,101826.27
2023-01-29T04:05:49.157Z,101826.48
2023-01-29T04:08:47.699Z,101832.25
2023-01-29T04:11:22.112Z,101837.86
2023-01-29T04:14:13.545Z,101838.80
2023-01-29T04:17:01.206Z,101838.36
2023-01-29T04:19:56.697Z,101831.89
2023-01-29T04:22:51.167Z,101823.83
2023-01-29T04:25:30.557Z,101820.95
2023-01-29T04:28:27.441Z,101811.14
2023-01-29T04:31:19.313Z,101805.08
2023-01-29T04:34:23.318Z,101801.80
2023-01-29T04:37:22.840Z,101814.41
2023-01-29T04:40:21.178Z,101821.34
2023-01-29T04:43:20.574Z,101824.25
2023-01-29T04:46:18.547Z,101816.48
2023-01-29T04:49:24.810Z,101807.13
2023-01-29T04:52:23.893Z,101798.63
2023-01-29T04:55:22.742Z,101793.20
2023-01-29T04:58:17.613Z,101781.38
2023-01-29T05:01:12.343Z,101767.65
2023-01-29T05:04:07.427Z,101764.61
2023-01-29T05:06:58.298Z,101779.35
2023-01-29T05:09:50.809Z,101778.91
2023-01-29T05:12:34.459Z,101763.23
2023-01-29T05:15:32.872Z,101770.21
2023-01-29T05:18:24.129Z,101788.59
2023-01-29T05:21:15.315Z,101790.04
2023-01-29T05:24:18.789Z,101794.27
2023-01-29T05:27:34.218Z,101797.85
2023-01-29T05:30:25.181Z,101802.46
2023-01-29T05:33:18.079Z,101811.13
2023-01-29T05:36:09.963Z,101815.80
2023-01-29T05:38:50.682Z,101813.92
2023-01-29T05:41:41.529Z,101819.14
2023-01-29T05:44:32.230Z,101815.59
2023-01-29T05:47:23.235Z,101808.88
2023-01-29T05:50:16.437Z,101806.64
2023-01-29T05:53:01.325Z,101805.28
2023-01-29T05:55:46.971Z,101799.10
2023-01-29T05:58:38.515Z,101800.31
2023-01-29T06:01:16.814Z,101799.27
2023-01-29T06:04:06.494Z,101796.49
2023-01-29T06:06:49.869Z,101795.91
2023-01-29T06:09:40.834Z,101797.45
2023-01-29T06:12:31.780Z,101793.42
2023-01-29T06:15:15.377Z,101799.10
2023-01-29T06:18:06.343Z,101809.95
2023-01-29T06:21:01.074Z,101816.85
2023-01-29T06:23:35.142Z,101822.73
2023-01-29T06:26:25.886Z,101823.27
2023-01-29T06:29:16.898Z,101820.77
2023-01-29T06:32:08.092Z,101810.09
2023-01-29T06:34:53.215Z,101807.88
2023-01-29T06:37:44.089Z,101801.70
2023-01-29T06:40:34.750Z,101796.02
2023-01-29T06:43:26.193Z,101792.55
2023-01-29T06:46:16.915Z,101788.03
2023-01-29T06:49:07.641Z,101786.43
2023-01-29T06:51:58.574Z,101792.45
2023-01-29T06:54:49.268Z,101786.89
2023-01-29T06:57:40.076Z,101792.73
2023-01-29T07:00:31.604Z,101797.73
2023-01-29T07:03:23.541Z,101802.91
2023-01-29T07:06:14.324Z,101804.64
2023-01-29T07:09:05.623Z,101811.23
2023-01-29T07:11:56.371Z,101811.26
2023-01-29T07:14:47.366Z,101805.40
2023-01-29T07:17:38.220Z,101810.78
2023-01-29T07:20:30.740Z,101806.64
2023-01-29T07:23:20.591Z,101801.30
2023-01-29T07:26:13.031Z,101807.70
2023-01-29T07:29:05.603Z,101801.35
2023-01-29T07:31:56.356Z,101798.95
2023-01-29T07:34:47.082Z,101800.35
2023-01-29T07:37:37.769Z,101808.48
2023-01-29T07:40:28.543Z,101810.58
2023-01-29T07:43:19.195Z,101808.33
2023-01-29T07:46:10.124Z,101815.75
2023-01-29T07:49:01.893Z,101820.25
2023-01-29T07:51:52.610Z,101820.63
2023-01-29T07:54:43.337Z,101823.95
2023-01-29T07:57:33.989Z,101834.86
2023-01-29T08:00:25.814Z,101830.94
2023-01-29T08:03:18.636Z,101832.73
2023-01-29T08:06:09.903Z,101831.09
2023-01-29T08:09:00.634Z,101835.13
2023-01-29T08:11:51.310Z,101840.91
2023-01-29T08:14:42.121Z,101837.90
2023-01-29T08:17:32.951Z,101835.39
2023-01-29T08:20:24.463Z,101833.91
2023-01-29T08:23:15.435Z,101829.17
2023-01-29T08:26:06.970Z,101829.82
2023-01-29T08:28:57.721Z,101828.59
2023-01-29T08:31:49.156Z,101823.90
2023-01-29T08:34:39.900Z,101831.16
2023-01-29T08:37:30.679Z,101834.94
2023-01-29T08:40:21.782Z,101840.78
2023-01-29T08:43:14.548Z,101847.63
2023-01-29T08:46:06.099Z,101848.27
2023-01-29T08:49:00.648Z,101857.83
2023-01-29T08:51:42.817Z,101862.52
2023-01-29T08:54:33.521Z,101865.45
2023-01-29T08:57:24.287Z,101850.73
2023-01-29T09:00:17.779Z,101834.34
2023-01-29T09:03:08.766Z,101817.92
2023-01-29T09:05:59.717Z,101803.95
2023-01-29T09:08:35.415Z,101790.50
2023-01-29T09:11:26.309Z,101781.95
2023-01-29T09:14:17.076Z,101777.64
2023-01-29T09:17:07.805Z,101776.79
2023-01-29T09:19:58.850Z,101777.81
2023-01-29T09:22:52.040Z,101782.64
2023-01-29T09:25:36.686Z,101788.69
2023-01-29T09:28:27.492Z,101798.89
2023-01-29T09:31:09.848Z,101796.95
2023-01-29T09:34:00.586Z,101805.03
2023-01-29T09:36:44.589Z,101817.84
2023-01-29T09:39:27.928Z,101818.00
2023-01-29T09:42:05.102Z,101820.59
2023-01-29T09:45:04.663Z,101823.66
2023-01-29T09:47:58.604Z,101827.71
2023-01-29T09:50:52.865Z,101819.63
2023-01-29T09:53:41.888Z,101826.59
2023-01-29T09:56:19.306Z,101833.70
2023-01-29T09:59:14.276Z,101834.91
2023-01-29T10:02:12.240Z,101844.45
2023-01-29T10:05:18.933Z,101846.55
2023-01-29T10:08:30.130Z,101853.84
2023-01-29T10:11:33.937Z,101858.75
2023-01-29T10:14:27.552Z,101857.02
2023-01-29T10:17:37.092Z,101861.54
2023-01-29T10:20:58.555Z,101856.95
2023-01-29T10:23:48.129Z,101841.95
2023-01-29T10:26:40.792Z,101837.30
2023-01-29T10:29:23.078Z,101825.16
2023-01-29T10:32:06.025Z,101833.05
2023-01-29T10:35:01.554Z,101830.95
2023-01-29T10:37:55.292Z,101818.11
2023-01-29T10:40:42.396Z,101806.35
2023-01-29T10:43:40.210Z,101803.64
2023-01-29T10:46:44.538Z,101801.87
2023-01-29T10:49:50.668Z,101799.23
2023-01-29T10:52:58.174Z,101794.15
2023-01-29T10:56:02.401Z,101793.66
2023-01-29T10:58:56.056Z,101790.22
2023-01-29T11:01:39.840Z,101775.50
2023-01-29T11:04:19.753Z,101767.19
2023-01-29T11:07:02.810Z,101762.72
2023-01-29T11:10:02.135Z,101757.17
2023-01-29T11:12:54.426Z,101759.63
2023-01-29T11:15:36.351Z,101757.43
2023-01-29T11:18:14.111Z,101755.73
2023-01-29T11:21:07.468Z,101758.67
2023-01-29T11:24:17.506Z,101754.85
2023-01-29T11:27:04.428Z,101751.21
2023-01-29T11:29:56.761Z,101749.17
2023-01-29T11:32:34.550Z,101741.03
2023-01-29T11:35:26.372Z,101725.04
2023-01-29T11:38:22.917Z,101716.88
2023-01-29T11:41:06.717Z,101711.48
2023-01-29T11:43:37.317Z,101704.86
2023-01-29T11:46:21.712Z,101700.68
2023-01-29T11:49:14.436Z,101692.19
2023-01-29T11:52:03.295Z,101683.88
2023-01-29T11:54:58.897Z,101673.67
2023-01-29T11:57:42.759Z,101673.69
2023-01-29T12:00:36.169Z,101669.32
2023-01-29T12:03:36.007Z,101669.14
2023-01-29T12:06:24.274Z,101673.30
2023-01-29T12:09:14.470Z,101668.27
2023-01-29T12:12:27.891Z,101664.27
2023-01-29T12:15:22.908Z,101653.84
2023-01-29T12:18:24.100Z,101649.84
2023-01-29T12:21:13.101Z,101641.90
2023-01-29T12:24:13.704Z,101644.88
2023-01-29T12:26:52.893Z,101642.83
2023-01-29T12:29:43.934Z,101639.27
2023-01-29T12:32:32.222Z,101635.88
2023-01-29T12:35:21.258Z,101630.37
2023-01-29T12:38:01.935Z,101630.23
2023-01-29T12:40:40.584Z,101633.58
2023-01-29T12:43:16.822Z,101633.42
2023-01-29T12:45:55.172Z,101633.45
2023-01-29T12:48:43.690Z,101630.58
2023-01-29T12:51:21.628Z,101627.52
2023-01-29T12:53:56.607Z,101623.42
2023-01-29T12:56:51.064Z,101616.31
2023-01-29T12:59:34.281Z,101608.33
2023-01-29T13:02:21.962Z,101600.66
2023-01-29T13:04:59.094Z,101596.13
2023-01-29T13:07:54.711Z,101587.23
2023-01-29T13:10:43.911Z,101590.69
2023-01-29T13:13:28.835Z,101589.41
2023-01-29T13:16:15.756Z,101579.06
2023-01-29T13:18:50.846Z,101577.84
2023-01-29T13:21:38.259Z,101574.20
2023-01-29T13:24:18.779Z,101568.96
2023-01-29T13:26:52.845Z,101564.77
2023-01-29T13:29:46.116Z,101564.73
2023-01-29T13:32:37.673Z,101562.48
2023-01-29T13:35:24.439Z,101557.27
2023-01-29T13:37:56.451Z,101555.20
2023-01-29T13:40:31.220Z,101558.34
2023-01-29T13:43:22.739Z,101559.38
2023-01-29T13:46:11.826Z,101556.91
2023-01-29T13:48:58.322Z,101549.77
2023-01-29T13:51:39.028Z,101544.55
2023-01-29T13:54:29.972Z,101536.88
2023-01-29T13:57:50.353Z,101529.20
2023-01-29T14:00:58.993Z,101530.14
2023-01-29T14:04:03.662Z,101531.11
2023-01-29T14:06:57.389Z,101527.51
2023-01-29T14:10:02.526Z,101527.02
2023-01-29T14:12:50.244Z,101529.82
2023-01-29T14:15:35.936Z,101533.14
2023-01-29T14:18:19.494Z,101533.65
2023-01-29T14:21:01.414Z,101532.09
2023-01-29T14:23:46.827Z,101529.30
2023-01-29T14:26:47.505Z,101526.86
2023-01-29T14:29:35.438Z,101521.27
2023-01-29T14:32:20.480Z,101520.56
2023-01-29T14:34:55.709Z,101517.21
2023-01-29T14:37:40.422Z,101513.27
2023-01-29T14:40:21.862Z,101514.43
2023-01-29T14:42:57.128Z,101517.23
2023-01-29T14:45:30.137Z,101510.84
2023-01-29T14:48:39.206Z,101508.13
2023-01-29T14:51:37.640Z,101509.56
2023-01-29T14:54:30.297Z,101506.30
2023-01-29T14:57:21.510Z,101510.68
2023-01-29T15:00:20.303Z,101512.60
2023-01-29T15:03:01.941Z,101513.11
2023-01-29T15:05:40.121Z,101515.55
2023-01-29T15:08:35.276Z,101516.41
2023-01-29T15:11:32.756Z,101514.65
2023-01-29T15:14:24.977Z,101510.09
2023-01-29T15:17:26.633Z,101513.87
2023-01-29T15:20:24.956Z,101513.13
2023-01-29T15:22:58.487Z,101507.88
2023-01-29T15:25:53.579Z,101507.67
2023-01-29T15:28:32.267Z,101504.84
2023-01-29T15:31:05.776Z,101506.88
2023-01-29T15:33:43.274Z,101512.56
2023-01-29T15:36:34.854Z,101518.43
2023-01-29T15:39:21.610Z,101527.42
2023-01-29T15:42:21.677Z,101531.70
2023-01-29T15:45:25.787Z,101527.33
2023-01-29T15:48:17.430Z,101526.59
2023-01-29T15:51:14.705Z,101521.34
2023-01-29T15:53:52.291Z,101511.23
2023-01-29T15:56:45.903Z,101501.29
2023-01-29T15:59:22.979Z,101498.83
2023-01-29T16:02:25.624Z,101491.15
2023-01-29T16:05:17.404Z,101486.42
2023-01-29T16:08:12.926Z,101486.35
2023-01-29T16:10:51.688Z,101484.75
2023-01-29T16:13:35.262Z,101479.48
2023-01-29T16:16:17.865Z,101473.89
2023-01-29T16:19:00.821Z,101474.53
2023-01-29T16:21:47.145Z,101472.23
2023-01-29T16:24:39.377Z,101474.73
2023-01-29T16:27:25.908Z,101470.35
2023-01-29T16:30:11.603Z,101467.82
2023-01-29T16:32:50.365Z,101464.42
2023-01-29T16:35:42.048Z,101460.34
2023-01-29T16:38:31.218Z,101457.48
2023-01-29T16:41:31.987Z,101455.63
2023-01-29T16:44:36.886Z,101453.10
2023-01-29T16:47:36.366Z,101445.55
2023-01-29T16:50:40.599Z,101441.64
2023-01-29T16:53:36.735Z,101441.38
2023-01-29T16:56:09.472Z,101443.76
2023-01-29T16:58:43.152Z,101442.88
2023-01-29T17:01:36.842Z,101447.73
2023-01-29T17:04:29.001Z,101450.83
2023-01-29T17:07:22.297Z,101452.11
2023-01-29T17:10:21.035Z,101456.83
2023-01-29T17:13:20.511Z,101463.09
2023-01-29T17:16:04.615Z,101463.48
2023-01-29T17:18:48.459Z,101464.58
2023-01-29T17:21:39.795Z,101474.33
2023-01-29T17:24:20.423Z,101477.18
2023-01-29T17:27:20.120Z,101475.19
2023-01-29T17:30:17.456Z,101471.64
2023-01-29T17:33:02.828Z,101475.91
2023-01-29T17:35:53.964Z,101480.98
2023-01-29T17:38:44.841Z,101479.70
2023-01-29T17:41:22.461Z,101488.96
2023-01-29T17:44:04.290Z,101494.23
2023-01-29T17:46:55.513Z,101494.13
2023-01-29T17:49:46.831Z,101498.91
2023-01-29T17:52:37.655Z,101501.98
2023-01-29T17:55:28.560Z,101505.23
2023-01-29T17:58:19.345Z,101501.93
2023-01-29T18:01:01.816Z,101498.27
2023-01-29T18:03:52.736Z,101502.11
2023-01-29T18:06:45.763Z,101511.09
2023-01-29T18:09:29.226Z,101517.75
2023-01-29T18:12:20.124Z,101511.34
2023-01-29T18:15:12.991Z,101511.30
2023-01-29T18:17:56.720Z,101505.95
2023-01-29T18:20:47.546Z,101501.11
2023-01-29T18:23:23.925Z,101496.75
2023-01-29T18:26:04.514Z,101490.33
2023-01-29T18:28:55.368Z,101495.13
2023-01-29T18:31:40.197Z,101498.38
2023-01-29T18:34:31.075Z,101495.23
2023-01-29T18:37:21.843Z,101490.91
2023-01-29T18:39:52.916Z,101493.70
2023-01-29T18:42:28.308Z,101493.02
2023-01-29T18:45:04.908Z,101494.94
2023-01-29T18:47:54.565Z,101494.23
2023-01-29T18:50:27.534Z,101494.73
2023-01-29T18:53:07.706Z,101495.57
2023-01-29T18:55:59.515Z,101494.30
2023-01-29T18:58:52.260Z,101493.13
2023-01-29T19:01:28.873Z,101494.04
2023-01-29T19:04:02.035Z,101496.52
2023-01-29T19:06:43.289Z,101492.38
2023-01-29T19:09:34.263Z,101488.49
2023-01-29T19:12:16.171Z,101483.77
2023-01-29T19:14:46.838Z,101488.35
2023-01-29T19:17:18.051Z,101482.58
2023-01-29T19:20:02.241Z,101484.20
2023-01-29T19:22:36.387Z,101486.16
2023-01-29T19:25:19.777Z,101490.37
2023-01-29T19:27:53.742Z,101492.30
2023-01-29T19:30:33.703Z,101492.86
2023-01-29T19:33:07.758Z,101485.23
2023-01-29T19:35:51.220Z,101488.70
2023-01-29T19:38:42.563Z,101485.98
2023-01-29T19:41:16.418Z,101480.17
2023-01-29T19:43:56.354Z,101476.57
2023-01-29T19:46:39.008Z,101469.31
2023-01-29T19:49:19.796Z,101470.37
2023-01-29T19:51:50.405Z,101467.79
2023-01-29T19:54:43.113Z,101472.28
2023-01-29T19:57:17.212Z,101470.71
2023-01-29T19:59:48.129Z,101467.89
2023-01-29T20:02:18.796Z,101470.65
2023-01-29T20:05:12.760Z,101466.79
2023-01-29T20:07:53.658Z,101466.95
2023-01-29T20:10:24.472Z,101467.80
2023-01-29T20:13:17.179Z,101470.23
2023-01-29T20:15:52.011Z,101465.54
2023-01-29T20:18:22.965Z,101467.93
2023-01-29T20:20:57.010Z,101466.00
2023-01-29T20:23:38.014Z,101460.84
2023-01-29T20:26:16.591Z,101457.90
2023-01-29T20:28:48.353Z,101455.46
2023-01-29T20:31:19.038Z,101453.20
2023-01-29T20:33:52.785Z,101456.47
2023-01-29T20:36:23.212Z,101456.65
2023-01-29T20:38:53.843Z,101456.54
2023-01-29T20:41:24.618Z,101461.39
2023-01-29T20:43:55.186Z,101461.41
2023-01-29T20:46:38.091Z,101459.84
2023-01-29T20:49:08.907Z,101460.02
2023-01-29T20:51:42.357Z,101463.81
2023-01-29T20:54:22.319Z,101467.61
2023-01-29T20:56:56.500Z,101467.23
2023-01-29T20:59:30.565Z,101469.46
2023-01-29T21:02:04.015Z,101467.39
2023-01-29T21:04:54.960Z,101460.64
2023-01-29T21:07:28.902Z,101457.57
2023-01-29T21:10:00.750Z,101460.06
2023-01-29T21:12:34.048Z,101454.92
2023-01-29T21:15:16.511Z,101447.27
2023-01-29T21:17:48.104Z,101443.42
2023-01-29T21:20:21.362Z,101440.23
2023-01-29T21:22:54.839Z,101436.48
2023-01-29T21:25:46.003Z,101432.55
2023-01-29T21:28:26.744Z,101430.52
2023-01-29T21:31:12.330Z,101421.04
2023-01-29T21:33:43.008Z,101422.95
2023-01-29T21:36:16.020Z,101417.25
2023-01-29T21:38:46.639Z,101410.86
2023-01-29T21:41:45.689Z,101402.39
2023-01-29T21:44:15.663Z,101397.61
2023-01-29T21:46:46.265Z,101401.63
2023-01-29T21:49:17.040Z,101409.13
2023-01-29T21:51:51.168Z,101409.84
2023-01-29T21:54:31.375Z,101409.00
2023-01-29T21:57:15.996Z,101398.82
2023-01-29T21:59:48.407Z,101384.45
2023-01-29T22:02:26.618Z,101378.05
2023-01-29T22:05:16.440Z,101379.42
2023-01-29T22:07:52.678Z,101378.22
2023-01-29T22:10:24.123Z,101381.85
2023-01-29T22:13:07.870Z,101377.35
2023-01-29T22:15:38.533Z,101370.95
2023-01-29T22:18:18.277Z,101370.65
2023-01-29T22:20:57.220Z,101369.61
2023-01-29T22:23:31.199Z,101369.09
2023-01-29T22:26:06.771Z,101367.55
2023-01-29T22:28:38.148Z,101360.13
2023-01-29T22:31:11.103Z,101354.77
2023-01-29T22:33:45.555Z,101348.20
2023-01-29T22:36:16.492Z,101341.66
2023-01-29T22:38:50.455Z,101337.16
2023-01-29T22:41:21.108Z,101332.50
2023-01-29T22:43:51.887Z,101331.14
2023-01-29T22:46:25.504Z,101327.16
2023-01-29T22:48:56.602Z,101320.79
2023-01-29T22:51:30.138Z,101314.91
2023-01-29T22:54:01.419Z,101305.57
2023-01-29T22:56:32.048Z,101301.27
2023-01-29T22:59:05.021Z,101302.48
2023-01-29T23:01:55.782Z,101304.75
2023-01-29T23:04:29.481Z,101297.84
2023-01-29T23:07:11.230Z,101290.08
2023-01-29T23:10:01.929Z,101283.85
2023-01-29T23:12:35.753Z,101277.96
2023-01-29T23:15:26.414Z,101274.52
2023-01-29T23:17:57.079Z,101266.90
2023-01-29T23:20:27.773Z,101263.27
2023-01-29T23:23:01.615Z,101269.33
2023-01-29T23:25:46.365Z,101273.16
2023-01-29T23:28:29.962Z,101275.60
2023-01-29T23:31:00.709Z,101279.58
2023-01-29T23:33:44.555Z,101273.70
2023-01-29T23:36:24.193Z,101267.11
2023-01-29T23:39:15.492Z,101251.14
2023-01-29T23:41:49.322Z,101241.44
2023-01-29T23:44:22.109Z,101237.77
2023-01-29T23:46:52.708Z,101241.41
2023-01-29T23:49:33.493Z,101238.45
2023-01-29T23:52:24.256Z,101248.86
2023-01-29T23:55:14.975Z,101247.13
2023-01-29T23:58:05.819Z,101240.37
